createdAt,value
2018-10-09T00:01:18.466Z,13.13
2018-10-09T00:03:45.742Z,12.52
2018-10-09T00:06:12.940Z,13.05
2018-10-09T00:08:40.087Z,13.01
2018-10-09T00:11:07.446Z,12.91
2018-10-09T00:13:34.608Z,12.86
2018-10-09T00:16:01.759Z,12.89
2018-10-09T00:18:28.886Z,12.86
2018-10-09T00:20:56.095Z,12.84
2018-10-09T00:23:23.294Z,12.84
2018-10-09T00:25:50.490Z,12.77
2018-10-09T00:28:17.618Z,12.83
2018-10-09T00:30:44.764Z,12.73
2018-10-09T00:33:11.893Z,12.85
2018-10-09T00:35:39.054Z,12.94
2018-10-09T00:38:06.170Z,12.85
2018-10-09T00:40:33.319Z,12.76
2018-10-09T00:43:00.465Z,12.77
2018-10-09T00:45:27.579Z,12.77
2018-10-09T00:47:54.788Z,12.79
2018-10-09T00:50:21.998Z,12.63
2018-10-09T00:52:49.090Z,12.63
2018-10-09T00:55:16.283Z,12.65
2018-10-09T00:57:43.443Z,12.64
2018-10-09T01:00:10.673Z,12.57
2018-10-09T01:02:37.836Z,12.64
2018-10-09T01:05:04.977Z,12.60
2018-10-09T01:07:32.110Z,12.55
2018-10-09T01:09:59.261Z,12.54
2018-10-09T01:12:26.396Z,12.35
2018-10-09T01:14:53.538Z,12.25
2018-10-09T01:17:20.689Z,12.25
2018-10-09T01:19:47.965Z,12.40
2018-10-09T01:22:15.110Z,12.47
2018-10-09T01:24:42.281Z,12.50
2018-10-09T01:27:09.729Z,12.62
2018-10-09T01:29:36.985Z,12.73
2018-10-09T01:32:04.169Z,12.80
2018-10-09T01:34:31.325Z,12.62
2018-10-09T01:36:58.476Z,12.65
2018-10-09T01:39:25.652Z,12.53
2018-10-09T01:41:52.769Z,12.52
2018-10-09T01:44:19.950Z,12.45
2018-10-09T01:46:47.150Z,12.40
2018-10-09T01:49:14.320Z,12.46
2018-10-09T01:51:41.486Z,12.50
2018-10-09T01:54:08.655Z,12.53
2018-10-09T01:56:36.113Z,12.57
2018-10-09T01:59:03.305Z,12.58
2018-10-09T02:01:30.476Z,12.62
2018-10-09T02:03:57.591Z,12.62
2018-10-09T02:06:24.717Z,12.57
2018-10-09T02:08:51.859Z,12.53
2018-10-09T02:11:19.009Z,12.51
2018-10-09T02:13:46.177Z,12.46
2018-10-09T02:16:13.330Z,12.38
2018-10-09T02:18:40.798Z,12.36
2018-10-09T02:21:07.922Z,12.33
2018-10-09T02:23:35.102Z,12.27
2018-10-09T02:26:02.234Z,12.14
2018-10-09T02:28:29.390Z,12.15
2018-10-09T02:30:56.518Z,12.16
2018-10-09T02:33:23.723Z,12.19
2018-10-09T02:35:50.832Z,12.15
2018-10-09T02:38:17.984Z,12.09
2018-10-09T02:40:45.133Z,12.10
2018-10-09T02:43:12.245Z,12.01
2018-10-09T02:45:39.366Z,11.93
2018-10-09T02:48:06.494Z,11.96
2018-10-09T02:50:33.848Z,11.98
2018-10-09T02:53:00.995Z,11.97
2018-10-09T02:55:28.127Z,11.92
2018-10-09T02:57:55.282Z,11.89
2018-10-09T03:00:22.436Z,11.84
2018-10-09T03:02:49.518Z,11.83
2018-10-09T03:05:16.622Z,11.78
2018-10-09T03:07:43.716Z,11.78
2018-10-09T03:10:10.864Z,11.77
2018-10-09T03:12:37.928Z,11.74
2018-10-09T03:15:05.267Z,11.79
2018-10-09T03:17:32.422Z,11.73
2018-10-09T03:19:59.561Z,11.67
2018-10-09T03:22:26.789Z,11.67
2018-10-09T03:24:53.917Z,11.55
2018-10-09T03:27:21.050Z,11.55
2018-10-09T03:29:48.139Z,11.28
2018-10-09T03:32:15.257Z,11.31
2018-10-09T03:34:42.337Z,11.36
2018-10-09T03:37:09.473Z,11.37
2018-10-09T03:39:36.572Z,11.35
2018-10-09T03:42:04.056Z,11.36
2018-10-09T03:44:31.246Z,11.30
2018-10-09T03:46:58.412Z,11.21
2018-10-09T03:49:25.676Z,11.20
2018-10-09T03:51:52.906Z,11.25
2018-10-09T03:54:20.033Z,11.28
2018-10-09T03:56:47.142Z,11.33
2018-10-09T03:59:14.505Z,11.35
2018-10-09T04:01:41.644Z,11.39
2018-10-09T04:04:08.787Z,11.33
2018-10-09T04:06:35.940Z,11.35
2018-10-09T04:09:05.679Z,10.98
2018-10-09T04:11:32.800Z,11.24
2018-10-09T04:14:00.031Z,11.13
2018-10-09T04:16:27.126Z,11.11
2018-10-09T04:18:54.257Z,11.07
2018-10-09T04:21:21.388Z,11.16
2018-10-09T04:23:48.576Z,11.18
2018-10-09T04:26:15.685Z,11.16
2018-10-09T04:28:42.882Z,11.19
2018-10-09T04:31:10.004Z,11.21
2018-10-09T04:33:37.157Z,11.16
2018-10-09T04:36:04.255Z,11.20
2018-10-09T04:38:31.400Z,11.23
2018-10-09T04:40:58.607Z,11.31
2018-10-09T04:43:25.765Z,11.26
2018-10-09T04:45:52.881Z,11.20
2018-10-09T04:48:20.028Z,11.22
2018-10-09T04:50:47.129Z,11.18
2018-10-09T04:53:14.402Z,11.26
2018-10-09T04:55:41.507Z,11.28
2018-10-09T04:58:08.632Z,11.24
2018-10-09T05:00:35.853Z,11.26
2018-10-09T05:03:03.028Z,11.27
2018-10-09T05:05:30.157Z,11.29
2018-10-09T05:07:57.998Z,11.05
2018-10-09T05:10:25.193Z,11.23
2018-10-09T05:12:52.279Z,11.23
2018-10-09T05:15:20.310Z,11.24
2018-10-09T05:17:47.621Z,11.21
2018-10-09T05:20:14.726Z,11.11
2018-10-09T05:22:41.876Z,11.01
2018-10-09T05:25:09.174Z,11.01
2018-10-09T05:27:36.477Z,10.97
2018-10-09T05:30:03.636Z,10.92
2018-10-09T05:32:30.721Z,10.92
2018-10-09T05:34:57.882Z,10.97
2018-10-09T05:37:24.980Z,10.97
2018-10-09T05:39:52.174Z,10.91
2018-10-09T05:42:19.332Z,10.85
2018-10-09T05:44:46.493Z,10.76
2018-10-09T05:47:13.757Z,10.72
2018-10-09T05:49:40.826Z,10.73
2018-10-09T05:52:08.193Z,10.66
2018-10-09T05:54:35.668Z,10.60
2018-10-09T05:57:02.889Z,10.65
2018-10-09T05:59:29.971Z,10.58
2018-10-09T06:01:57.185Z,10.60
2018-10-09T06:04:24.335Z,10.53
2018-10-09T06:06:51.435Z,10.54
2018-10-09T06:09:18.640Z,10.60
2018-10-09T06:11:45.793Z,10.59
2018-10-09T06:14:12.940Z,10.81
2018-10-09T06:16:40.851Z,10.89
2018-10-09T06:19:08.052Z,10.70
2018-10-09T06:21:35.262Z,10.66
2018-10-09T06:24:02.408Z,10.71
2018-10-09T06:26:29.546Z,10.49
2018-10-09T06:28:56.757Z,10.88
2018-10-09T06:31:24.050Z,10.87
2018-10-09T06:33:51.286Z,10.88
2018-10-09T06:36:18.490Z,10.97
2018-10-09T06:38:45.710Z,11.08
2018-10-09T06:41:12.855Z,11.17
2018-10-09T06:43:40.017Z,11.21
2018-10-09T06:46:07.168Z,11.27
2018-10-09T06:48:34.365Z,11.32
2018-10-09T06:51:01.501Z,11.40
2018-10-09T06:53:28.912Z,11.49
2018-10-09T06:55:56.109Z,11.28
2018-10-09T06:58:23.296Z,11.60
2018-10-09T07:00:50.488Z,11.65
2018-10-09T07:03:18.178Z,11.68
2018-10-09T07:05:45.572Z,11.73
2018-10-09T07:08:13.460Z,11.75
2018-10-09T07:10:40.679Z,11.80
2018-10-09T07:13:07.857Z,11.81
2018-10-09T07:15:35.093Z,11.90
2018-10-09T07:18:02.244Z,12.00
2018-10-09T07:20:29.412Z,12.14
2018-10-09T07:22:56.620Z,12.25
2018-10-09T07:25:23.820Z,12.29
2018-10-09T07:27:51.027Z,12.37
2018-10-09T07:30:18.298Z,12.45
2018-10-09T07:32:45.586Z,12.49
2018-10-09T07:35:13.076Z,12.55
2018-10-09T07:37:40.286Z,12.62
2018-10-09T07:40:07.484Z,12.66
2018-10-09T07:42:34.711Z,12.76
2018-10-09T07:45:02.462Z,12.86
2018-10-09T07:47:32.781Z,12.95
2018-10-09T07:50:00.083Z,13.02
2018-10-09T07:52:27.365Z,13.08
2018-10-09T07:54:54.538Z,13.15
2018-10-09T07:57:21.873Z,13.27
2018-10-09T07:59:49.014Z,13.40
2018-10-09T08:02:16.170Z,13.53
2018-10-09T08:04:43.734Z,13.68
2018-10-09T08:07:10.982Z,13.80
2018-10-09T08:09:38.285Z,13.87
2018-10-09T08:12:05.470Z,13.85
2018-10-09T08:14:32.638Z,13.89
2018-10-09T08:16:59.969Z,13.95
2018-10-09T08:19:27.139Z,14.03
2018-10-09T08:21:54.333Z,14.09
2018-10-09T08:24:21.585Z,14.25
2018-10-09T08:26:48.820Z,14.37
2018-10-09T08:29:15.969Z,14.54
2018-10-09T08:31:43.094Z,14.60
2018-10-09T08:34:10.392Z,14.74
2018-10-09T08:36:37.494Z,14.75
2018-10-09T08:39:05.158Z,14.88
2018-10-09T08:41:32.398Z,15.03
2018-10-09T08:43:59.562Z,15.11
2018-10-09T08:46:26.841Z,15.22
2018-10-09T08:48:53.978Z,15.34
2018-10-09T08:51:21.139Z,15.41
2018-10-09T08:53:48.360Z,15.55
2018-10-09T08:56:15.720Z,15.68
2018-10-09T08:58:43.020Z,15.71
2018-10-09T09:01:10.170Z,15.79
2018-10-09T09:03:37.379Z,15.86
2018-10-09T09:06:04.517Z,15.94
2018-10-09T09:08:31.817Z,15.99
2018-10-09T09:10:58.972Z,16.13
2018-10-09T09:13:26.116Z,16.23
2018-10-09T09:15:54.204Z,16.33
2018-10-09T09:18:21.328Z,16.43
2018-10-09T09:20:48.943Z,16.51
2018-10-09T09:23:16.141Z,16.61
2018-10-09T09:25:43.373Z,16.72
2018-10-09T09:28:10.558Z,16.86
2018-10-09T09:30:37.767Z,16.93
2018-10-09T09:33:05.009Z,17.04
2018-10-09T09:35:32.208Z,17.18
2018-10-09T09:37:59.392Z,17.35
2018-10-09T09:40:26.574Z,17.51
2018-10-09T09:42:53.779Z,17.70
2018-10-09T09:45:20.901Z,17.87
2018-10-09T09:47:48.182Z,18.02
2018-10-09T09:50:15.316Z,18.16
2018-10-09T09:52:42.478Z,18.31
2018-10-09T09:55:09.619Z,18.47
2018-10-09T09:57:36.749Z,18.55
2018-10-09T10:00:04.036Z,18.65
2018-10-09T10:02:31.269Z,18.82
2018-10-09T10:04:58.663Z,18.89
2018-10-09T10:07:26.186Z,18.97
2018-10-09T10:09:53.424Z,19.08
2018-10-09T10:12:20.576Z,19.15
2018-10-09T10:14:47.657Z,19.19
2018-10-09T10:17:14.783Z,19.23
2018-10-09T10:19:41.983Z,19.34
2018-10-09T10:22:09.167Z,19.40
2018-10-09T10:24:36.561Z,19.48
2018-10-09T10:27:03.666Z,19.53
2018-10-09T10:29:30.757Z,19.54
2018-10-09T10:31:58.332Z,19.57
2018-10-09T10:34:25.447Z,19.60
2018-10-09T10:36:52.615Z,19.57
2018-10-09T10:39:19.861Z,19.62
2018-10-09T10:41:46.956Z,19.68
2018-10-09T10:44:14.151Z,19.80
2018-10-09T10:46:41.758Z,19.81
2018-10-09T10:49:11.128Z,19.88
2018-10-09T10:51:38.396Z,19.94
2018-10-09T10:54:05.633Z,20.05
2018-10-09T10:56:33.101Z,20.19
2018-10-09T10:59:00.285Z,20.32
2018-10-09T11:01:27.717Z,20.53
2018-10-09T11:03:55.429Z,20.69
2018-10-09T11:06:22.773Z,20.81
2018-10-09T11:08:49.951Z,20.92
2018-10-09T11:11:17.890Z,20.98
2018-10-09T11:13:45.173Z,21.02
2018-10-09T11:16:12.355Z,21.02
2018-10-09T11:18:39.585Z,20.99
2018-10-09T11:21:07.223Z,20.97
2018-10-09T11:23:34.368Z,21.00
2018-10-09T11:26:01.678Z,21.05
2018-10-09T11:28:28.897Z,21.03
2018-10-09T11:30:56.098Z,21.04
2018-10-09T11:33:23.292Z,21.06
2018-10-09T11:35:50.454Z,21.07
2018-10-09T11:38:17.642Z,21.08
2018-10-09T11:40:44.862Z,21.19
2018-10-09T11:43:12.003Z,21.25
2018-10-09T11:45:39.638Z,21.29
2018-10-09T11:48:06.802Z,21.33
2018-10-09T11:50:33.954Z,21.37
2018-10-09T11:53:01.316Z,21.41
2018-10-09T11:55:28.525Z,21.57
2018-10-09T11:57:56.958Z,21.66
2018-10-09T12:00:24.470Z,21.58
2018-10-09T12:02:51.961Z,21.60
2018-10-09T12:05:19.078Z,21.68
2018-10-09T12:07:46.362Z,21.76
2018-10-09T12:10:14.069Z,21.83
2018-10-09T12:12:41.351Z,21.81
2018-10-09T12:15:08.646Z,21.88
2018-10-09T12:17:35.771Z,21.82
2018-10-09T12:20:03.050Z,21.84
2018-10-09T12:22:30.207Z,21.87
2018-10-09T12:24:57.332Z,21.87
2018-10-09T12:27:24.498Z,21.87
2018-10-09T12:29:51.933Z,21.89
2018-10-09T12:32:19.158Z,22.04
2018-10-09T12:34:46.400Z,22.21
2018-10-09T12:37:13.518Z,22.35
2018-10-09T12:39:40.763Z,22.54
2018-10-09T12:42:07.918Z,22.72
2018-10-09T12:44:35.026Z,22.81
2018-10-09T12:47:02.187Z,22.95
2018-10-09T12:49:29.506Z,23.13
2018-10-09T12:51:56.649Z,23.16
2018-10-09T12:54:23.805Z,23.16
2018-10-09T12:56:51.030Z,23.27
2018-10-09T12:59:18.230Z,23.22
2018-10-09T13:01:45.399Z,23.25
2018-10-09T13:04:12.649Z,23.29
2018-10-09T13:06:39.836Z,23.29
2018-10-09T13:09:08.444Z,23.21
2018-10-09T13:11:35.762Z,23.23
2018-10-09T13:14:02.990Z,23.18
2018-10-09T13:16:30.136Z,23.27
2018-10-09T13:18:57.318Z,23.32
2018-10-09T13:21:24.698Z,23.40
2018-10-09T13:23:51.806Z,23.47
2018-10-09T13:26:19.106Z,23.46
2018-10-09T13:28:46.278Z,23.32
2018-10-09T13:31:13.397Z,23.22
2018-10-09T13:33:40.565Z,23.16
2018-10-09T13:36:07.755Z,23.01
2018-10-09T13:41:01.661Z,22.86
2018-10-09T13:43:28.762Z,22.84
2018-10-09T13:45:55.867Z,22.81
2018-10-09T13:48:23.115Z,22.85
2018-10-09T13:50:50.331Z,22.87
2018-10-09T13:53:17.900Z,22.87
2018-10-09T13:55:45.093Z,22.92
2018-10-09T13:58:12.225Z,22.99
2018-10-09T14:00:39.451Z,23.08
2018-10-09T14:03:07.083Z,23.14
2018-10-09T14:05:34.378Z,23.30
2018-10-09T14:08:01.626Z,23.44
2018-10-09T14:10:28.757Z,23.47
2018-10-09T14:12:56.284Z,23.38
2018-10-09T14:15:23.422Z,23.29
2018-10-09T14:17:50.616Z,23.22
2018-10-09T14:20:17.771Z,23.14
2018-10-09T14:22:45.091Z,23.07
2018-10-09T14:25:12.832Z,23.03
2018-10-09T14:27:40.006Z,22.93
2018-10-09T14:30:07.209Z,22.78
2018-10-09T14:32:35.115Z,22.66
2018-10-09T14:35:02.375Z,22.55
2018-10-09T14:37:29.454Z,22.51
2018-10-09T14:39:56.633Z,22.51
2018-10-09T14:42:23.746Z,22.52
2018-10-09T14:44:50.889Z,22.51
2018-10-09T14:47:18.001Z,22.45
2018-10-09T14:49:45.133Z,22.41
2018-10-09T14:52:12.322Z,22.35
2018-10-09T14:54:39.553Z,22.33
2018-10-09T14:57:07.130Z,22.32
2018-10-09T14:59:34.338Z,22.35
2018-10-09T15:02:01.516Z,22.35
2018-10-09T15:04:28.793Z,22.21
2018-10-09T15:06:56.619Z,22.11
2018-10-09T15:09:23.836Z,22.06
2018-10-09T15:11:51.045Z,21.99
2018-10-09T15:14:18.243Z,21.93
2018-10-09T15:16:45.418Z,21.74
2018-10-09T15:19:12.511Z,21.91
2018-10-09T15:21:39.666Z,21.82
2018-10-09T15:24:06.868Z,21.82
2018-10-09T15:26:34.002Z,21.78
2018-10-09T15:29:01.218Z,21.78
2018-10-09T15:31:28.422Z,21.74
2018-10-09T15:33:55.559Z,21.69
2018-10-09T15:36:22.855Z,21.65
2018-10-09T15:38:50.123Z,21.59
2018-10-09T15:41:17.641Z,21.50
2018-10-09T15:43:44.739Z,21.50
2018-10-09T15:46:11.921Z,21.25
2018-10-09T15:48:39.195Z,21.39
2018-10-09T15:51:06.419Z,21.32
2018-10-09T15:53:33.956Z,21.25
2018-10-09T15:56:01.090Z,21.24
2018-10-09T15:58:28.523Z,21.22
2018-10-09T16:00:55.699Z,21.12
2018-10-09T16:03:22.978Z,21.03
2018-10-09T16:05:50.169Z,20.99
2018-10-09T16:08:17.729Z,20.91
2018-10-09T16:10:44.909Z,20.85
2018-10-09T16:13:12.067Z,20.76
2018-10-09T16:15:39.621Z,20.71
2018-10-09T16:18:06.781Z,20.67
2018-10-09T16:20:34.340Z,20.54
2018-10-09T16:23:01.504Z,20.48
2018-10-09T16:25:28.724Z,20.45
2018-10-09T16:27:55.958Z,20.46
2018-10-09T16:30:23.315Z,20.44
2018-10-09T16:32:51.676Z,20.36
2018-10-09T16:35:18.847Z,20.30
2018-10-09T16:37:45.964Z,20.22
2018-10-09T16:40:13.158Z,20.19
2018-10-09T16:42:40.306Z,20.16
2018-10-09T16:45:07.470Z,20.10
2018-10-09T16:47:34.729Z,20.02
2018-10-09T16:50:01.910Z,19.95
2018-10-09T16:52:29.052Z,19.88
2018-10-09T16:54:56.228Z,19.82
2018-10-09T16:57:25.894Z,19.81
2018-10-09T16:59:53.630Z,19.81
2018-10-09T17:02:20.830Z,19.77
2018-10-09T17:04:48.081Z,19.72
2018-10-09T17:07:15.315Z,19.65
2018-10-09T17:09:42.662Z,19.61
2018-10-09T17:12:09.873Z,19.61
2018-10-09T17:14:37.017Z,19.52
2018-10-09T17:17:04.260Z,19.47
2018-10-09T17:19:31.461Z,19.40
2018-10-09T17:21:58.606Z,19.30
2018-10-09T17:24:25.819Z,19.28
2018-10-09T17:26:52.953Z,19.24
2018-10-09T17:29:20.164Z,19.18
2018-10-09T17:31:47.451Z,19.15
2018-10-09T17:34:14.683Z,19.08
2018-10-09T17:36:41.936Z,19.02
2018-10-09T17:39:10.250Z,18.96
2018-10-09T17:41:37.730Z,18.86
2018-10-09T17:44:04.876Z,18.78
2018-10-09T17:46:32.195Z,18.69
2018-10-09T17:48:59.218Z,18.73
2018-10-09T17:51:26.470Z,18.73
2018-10-09T17:53:53.643Z,18.63
2018-10-09T17:56:20.725Z,18.49
2018-10-09T17:58:47.944Z,18.38
2018-10-09T18:01:15.134Z,18.34
2018-10-09T18:03:42.269Z,18.25
2018-10-09T18:06:09.410Z,18.17
2018-10-09T18:08:36.616Z,18.20
2018-10-09T18:11:03.928Z,18.17
2018-10-09T18:13:31.136Z,18.08
2018-10-09T18:15:58.281Z,18.01
2018-10-09T18:18:25.487Z,17.91
2018-10-09T18:20:52.932Z,17.87
2018-10-09T18:23:20.166Z,17.86
2018-10-09T18:25:47.493Z,17.75
2018-10-09T18:28:14.644Z,17.71
2018-10-09T18:30:41.871Z,17.73
2018-10-09T18:33:09.086Z,17.68
2018-10-09T18:35:36.229Z,17.70
2018-10-09T18:38:03.538Z,17.34
2018-10-09T18:40:30.765Z,17.42
2018-10-09T18:42:58.101Z,17.44
2018-10-09T18:45:25.241Z,17.40
2018-10-09T18:47:52.551Z,17.32
2018-10-09T18:50:19.815Z,17.25
2018-10-09T18:52:47.197Z,17.24
2018-10-09T18:55:15.887Z,17.16
2018-10-09T18:57:43.418Z,17.14
2018-10-09T19:00:10.919Z,17.08
2018-10-09T19:02:39.070Z,17.09
2018-10-09T19:05:07.080Z,17.04
2018-10-09T19:07:34.265Z,16.95
2018-10-09T19:10:01.721Z,16.86
2018-10-09T19:12:29.100Z,16.77
2018-10-09T19:14:56.478Z,16.78
2018-10-09T19:17:23.766Z,16.54
2018-10-09T19:19:51.235Z,16.70
2018-10-09T19:22:18.859Z,16.69
2018-10-09T19:24:46.315Z,16.69
2018-10-09T19:27:14.009Z,16.40
2018-10-09T19:29:41.236Z,16.44
2018-10-09T19:32:08.407Z,16.44
2018-10-09T19:34:35.756Z,16.43
2018-10-09T19:37:03.062Z,16.40
2018-10-09T19:39:30.286Z,16.41
2018-10-09T19:41:57.527Z,16.44
2018-10-09T19:44:25.001Z,16.37
2018-10-09T19:46:52.271Z,16.24
2018-10-09T19:49:19.444Z,16.16
2018-10-09T19:51:46.755Z,16.19
2018-10-09T19:54:13.906Z,16.15
2018-10-09T19:56:41.369Z,16.11
2018-10-09T19:59:09.123Z,16.12
2018-10-09T20:01:36.692Z,16.10
2018-10-09T20:04:04.598Z,16.09
2018-10-09T20:06:32.048Z,16.06
2018-10-09T20:08:59.262Z,16.03
2018-10-09T20:11:26.939Z,16.07
2018-10-09T20:13:54.529Z,16.07
2018-10-09T20:16:21.889Z,16.02
2018-10-09T20:18:49.231Z,15.98
2018-10-09T20:21:16.427Z,15.93
2018-10-09T20:23:43.683Z,15.84
2018-10-09T20:26:11.547Z,15.80
2018-10-09T20:28:38.739Z,15.78
2018-10-09T20:31:05.918Z,15.74
2018-10-09T20:33:33.418Z,15.64
2018-10-09T20:36:00.599Z,15.57
2018-10-09T20:38:27.808Z,15.58
2018-10-09T20:40:55.449Z,15.53
2018-10-09T20:43:22.781Z,15.48
2018-10-09T20:45:50.021Z,15.41
2018-10-09T20:48:17.293Z,15.33
2018-10-09T20:50:44.443Z,15.31
2018-10-09T20:53:11.780Z,15.23
2018-10-09T20:55:38.978Z,15.15
2018-10-09T20:58:06.209Z,15.10
2018-10-09T21:00:33.373Z,15.14
2018-10-09T21:03:00.982Z,15.16
2018-10-09T21:05:28.539Z,15.12
2018-10-09T21:07:55.731Z,15.05
2018-10-09T21:10:22.915Z,15.09
2018-10-09T21:12:50.095Z,15.05
2018-10-09T21:15:17.305Z,15.10
2018-10-09T21:17:44.722Z,15.03
2018-10-09T21:20:11.863Z,14.85
2018-10-09T21:22:39.100Z,14.81
2018-10-09T21:25:06.454Z,14.69
2018-10-09T21:27:33.687Z,14.65
2018-10-09T21:30:00.974Z,14.76
2018-10-09T21:32:28.251Z,14.74
2018-10-09T21:34:55.485Z,14.76
2018-10-09T21:37:23.203Z,14.66
2018-10-09T21:39:50.454Z,14.66
2018-10-09T21:42:17.749Z,14.65
2018-10-09T21:44:44.966Z,14.58
2018-10-09T21:47:12.366Z,14.51
2018-10-09T21:49:39.556Z,14.49
2018-10-09T21:52:06.722Z,14.47
2018-10-09T21:54:33.915Z,14.46
2018-10-09T21:57:01.130Z,14.41
2018-10-09T21:59:28.372Z,14.45
2018-10-09T22:01:55.556Z,14.50
2018-10-09T22:04:22.717Z,14.49
2018-10-09T22:06:49.860Z,14.41
2018-10-09T22:09:17.069Z,14.40
2018-10-09T22:11:44.262Z,14.02
2018-10-09T22:14:11.437Z,14.25
2018-10-09T22:16:38.614Z,14.26
2018-10-09T22:19:05.991Z,14.19
2018-10-09T22:21:33.190Z,14.12
2018-10-09T22:24:00.484Z,14.19
2018-10-09T22:26:27.661Z,14.22
2018-10-09T22:28:54.815Z,14.26
2018-10-09T22:31:21.975Z,14.09
2018-10-09T22:33:49.132Z,14.05
2018-10-09T22:36:16.319Z,14.10
2018-10-09T22:38:43.532Z,14.10
2018-10-09T22:41:10.688Z,14.05
2018-10-09T22:43:37.903Z,14.01
2018-10-09T22:46:05.058Z,13.97
2018-10-09T22:48:32.234Z,13.90
2018-10-09T22:50:59.618Z,13.91
2018-10-09T22:53:27.196Z,13.82
2018-10-09T22:55:54.352Z,13.70
2018-10-09T22:58:21.613Z,13.63
2018-10-09T23:00:48.860Z,13.63
2018-10-09T23:03:16.005Z,13.67
2018-10-09T23:05:43.125Z,13.64
2018-10-09T23:08:10.255Z,13.59
2018-10-09T23:10:37.378Z,13.68
2018-10-09T23:13:04.597Z,13.58
2018-10-09T23:15:31.719Z,13.56
2018-10-09T23:17:58.872Z,13.58
2018-10-09T23:20:26.140Z,13.60
2018-10-09T23:22:53.326Z,13.62
2018-10-09T23:25:20.623Z,13.57
2018-10-09T23:27:47.851Z,13.61
2018-10-09T23:30:15.036Z,13.66
2018-10-09T23:32:42.233Z,13.66
2018-10-09T23:35:09.479Z,13.67
2018-10-09T23:37:37.459Z,13.61
2018-10-09T23:40:04.656Z,13.54
2018-10-09T23:42:31.790Z,13.52
2018-10-09T23:44:58.979Z,13.47
2018-10-09T23:47:26.113Z,13.51
2018-10-09T23:49:53.247Z,13.59
2018-10-09T23:52:20.458Z,13.56
2018-10-09T23:54:47.607Z,13.50
2018-10-09T23:57:14.791Z,13.50
2018-10-09T23:59:41.909Z,13.43
